sensor_id;sensor_type;location;lat;lon;timestamp;pressure;altitude;pressure_sealevel;temperature;humidity
2000;BME280;1001;48.87406500;9.59633600;2022-11-12T00:01:47;96583.81;;;7.74;94.37
2000;BME280;1001;48.87406500;9.59633600;2022-11-12T00:04:15;96583.00;;;7.73;94.66
2000;BME280;1001;48.87406500;9.59633600;2022-11-12T00:06:41;96583.63;;;7.75;95.14
2000;BME280;1001;48.87406500;9.59633600;2022-11-12T00:09:08;96587.41;;;7.73;95.52
2000;BME280;1001;48.87406500;9.59633600;2022-11-12T00:11:34;96584.16;;;7.71;95.15
2000;BME280;1001;48.87406500;9.59633600;2022-11-12T00:14:01;96582.59;;;7.62;95.65
2000;BME280;1001;48.87406500;9.59633600;2022-11-12T00:16:28;96582.03;;;7.51;96.04
2000;BME280;1001;48.87406500;9.59633600;2022-11-12T00:18:54;96573.59;;;7.49;95.73
2000;BME280;1001;48.87406500;9.59633600;2022-11-12T00:21:22;96577.50;;;7.45;96.16
2000;BME280;1001;48.87406500;9.59633600;2022-11-12T00:23:49;96577.44;;;7.53;96.45
2000;BME280;1001;48.87406500;9.59633600;2022-11-12T00:26:15;96579.00;;;7.63;97.06
2000;BME280;1001;48.87406500;9.59633600;2022-11-12T00:28:42;96575.34;;;7.72;97.50
2000;BME280;1001;48.87406500;9.59633600;2022-11-12T00:31:09;96583.22;;;7.86;97.62
2000;BME280;1001;48.87406500;9.59633600;2022-11-12T00:33:38;96579.25;;;7.76;97.62
2000;BME280;1001;48.87406500;9.59633600;2022-11-12T00:36:06;96576.63;;;7.76;98.01
2000;BME280;1001;48.87406500;9.59633600;2022-11-12T00:38:34;96573.56;;;7.72;97.75
2000;BME280;1001;48.87406500;9.59633600;2022-11-12T00:41:01;96586.28;;;7.67;97.99
2000;BME280;1001;48.87406500;9.59633600;2022-11-12T00:43:28;96583.56;;;7.61;98.74
2000;BME280;1001;48.87406500;9.59633600;2022-11-12T00:45:54;96580.69;;;7.55;98.97
2000;BME280;1001;48.87406500;9.59633600;2022-11-12T00:48:22;96577.94;;;7.57;99.45
2000;BME280;1001;48.87406500;9.59633600;2022-11-12T00:50:48;96575.19;;;7.50;99.74
2000;BME280;1001;48.87406500;9.59633600;2022-11-12T00:53:15;96584.66;;;7.43;100.00
2000;BME280;1001;48.87406500;9.59633600;2022-11-12T00:55:43;96585.97;;;7.47;100.00
2000;BME280;1001;48.87406500;9.59633600;2022-11-12T00:58:10;96581.94;;;7.37;99.83
2000;BME280;1001;48.87406500;9.59633600;2022-11-12T01:00:36;96586.00;;;7.39;100.00
2000;BME280;1001;48.87406500;9.59633600;2022-11-12T01:03:03;96578.31;;;7.46;100.00
2000;BME280;1001;48.87406500;9.59633600;2022-11-12T01:05:31;96581.09;;;7.44;100.00
2000;BME280;1001;48.87406500;9.59633600;2022-11-12T01:07:58;96581.94;;;7.37;100.00
2000;BME280;1001;48.87406500;9.59633600;2022-11-12T01:10:24;96579.97;;;7.39;100.00
2000;BME280;1001;48.87406500;9.59633600;2022-11-12T01:12:53;96575.28;;;7.34;100.00
2000;BME280;1001;48.87406500;9.59633600;2022-11-12T01:15:20;96575.78;;;7.38;100.00
2000;BME280;1001;48.87406500;9.59633600;2022-11-12T01:17:46;96570.78;;;7.28;100.00
2000;BME280;1001;48.87406500;9.59633600;2022-11-12T01:20:13;96577.00;;;7.19;100.00
2000;BME280;1001;48.87406500;9.59633600;2022-11-12T01:22:39;96574.13;;;7.14;100.00
2000;BME280;1001;48.87406500;9.59633600;2022-11-12T01:25:06;96568.75;;;7.16;100.00
2000;BME280;1001;48.87406500;9.59633600;2022-11-12T01:27:33;96565.31;;;7.15;100.00
2000;BME280;1001;48.87406500;9.59633600;2022-11-12T01:30:03;96556.06;;;7.13;100.00
2000;BME280;1001;48.87406500;9.59633600;2022-11-12T01:32:33;96559.78;;;7.18;100.00
2000;BME280;1001;48.87406500;9.59633600;2022-11-12T01:35:00;96550.19;;;7.19;100.00
2000;BME280;1001;48.87406500;9.59633600;2022-11-12T01:37:26;96543.84;;;7.21;100.00
2000;BME280;1001;48.87406500;9.59633600;2022-11-12T01:39:53;96547.13;;;7.15;100.00
2000;BME280;1001;48.87406500;9.59633600;2022-11-12T01:42:22;96542.44;;;7.11;100.00
2000;BME280;1001;48.87406500;9.59633600;2022-11-12T01:44:50;96541.28;;;7.13;100.00
2000;BME280;1001;48.87406500;9.59633600;2022-11-12T01:47:20;96540.31;;;7.14;100.00
2000;BME280;1001;48.87406500;9.59633600;2022-11-12T01:49:51;96537.13;;;7.04;100.00
2000;BME280;1001;48.87406500;9.59633600;2022-11-12T01:52:21;96543.66;;;7.00;100.00
2000;BME280;1001;48.87406500;9.59633600;2022-11-12T01:54:52;96537.41;;;7.09;100.00
2000;BME280;1001;48.87406500;9.59633600;2022-11-12T01:57:22;96535.75;;;7.16;100.00
2000;BME280;1001;48.87406500;9.59633600;2022-11-12T01:59:52;96534.91;;;7.24;100.00
2000;BME280;1001;48.87406500;9.59633600;2022-11-12T02:02:23;96532.28;;;7.24;100.00
2000;BME280;1001;48.87406500;9.59633600;2022-11-12T02:04:50;96527.44;;;7.21;100.00
2000;BME280;1001;48.87406500;9.59633600;2022-11-12T02:07:17;96520.78;;;7.18;100.00
2000;BME280;1001;48.87406500;9.59633600;2022-11-12T02:09:45;96527.56;;;7.19;100.00
2000;BME280;1001;48.87406500;9.59633600;2022-11-12T02:12:12;96533.44;;;7.21;100.00
2000;BME280;1001;48.87406500;9.59633600;2022-11-12T02:14:59;96525.69;;;7.13;100.00
2000;BME280;1001;48.87406500;9.59633600;2022-11-12T02:17:26;96527.34;;;7.06;100.00
2000;BME280;1001;48.87406500;9.59633600;2022-11-12T02:19:53;96525.72;;;7.05;100.00
2000;BME280;1001;48.87406500;9.59633600;2022-11-12T02:22:24;96525.56;;;7.07;100.00
2000;BME280;1001;48.87406500;9.59633600;2022-11-12T02:24:51;96521.00;;;7.09;100.00
2000;BME280;1001;48.87406500;9.59633600;2022-11-12T02:27:18;96511.03;;;7.12;100.00
2000;BME280;1001;48.87406500;9.59633600;2022-11-12T02:29:45;96517.84;;;7.21;100.00
2000;BME280;1001;48.87406500;9.59633600;2022-11-12T02:32:11;96517.66;;;7.23;100.00
2000;BME280;1001;48.87406500;9.59633600;2022-11-12T02:34:38;96519.28;;;7.24;100.00
2000;BME280;1001;48.87406500;9.59633600;2022-11-12T02:37:05;96515.22;;;7.21;100.00
2000;BME280;1001;48.87406500;9.59633600;2022-11-12T02:39:33;96519.09;;;7.25;100.00
2000;BME280;1001;48.87406500;9.59633600;2022-11-12T02:42:00;96517.09;;;7.35;100.00
2000;BME280;1001;48.87406500;9.59633600;2022-11-12T02:44:26;96524.19;;;7.41;100.00
2000;BME280;1001;48.87406500;9.59633600;2022-11-12T02:46:53;96521.06;;;7.46;100.00
2000;BME280;1001;48.87406500;9.59633600;2022-11-12T02:49:20;96522.91;;;7.37;100.00
2000;BME280;1001;48.87406500;9.59633600;2022-11-12T02:51:46;96522.72;;;7.39;100.00
2000;BME280;1001;48.87406500;9.59633600;2022-11-12T02:54:13;96524.19;;;7.41;100.00
2000;BME280;1001;48.87406500;9.59633600;2022-11-12T02:56:41;96525.19;;;7.40;100.00
2000;BME280;1001;48.87406500;9.59633600;2022-11-12T02:59:08;96522.72;;;7.39;100.00
2000;BME280;1001;48.87406500;9.59633600;2022-11-12T03:01:34;96532.47;;;7.45;100.00
2000;BME280;1001;48.87406500;9.59633600;2022-11-12T03:04:01;96527.06;;;7.46;100.00
2000;BME280;1001;48.87406500;9.59633600;2022-11-12T03:06:27;96521.63;;;7.56;100.00
2000;BME280;1001;48.87406500;9.59633600;2022-11-12T03:08:54;96522.91;;;7.60;100.00
2000;BME280;1001;48.87406500;9.59633600;2022-11-12T03:11:21;96520.03;;;7.70;100.00
2000;BME280;1001;48.87406500;9.59633600;2022-11-12T03:13:49;96522.41;;;7.79;100.00
2000;BME280;1001;48.87406500;9.59633600;2022-11-12T03:16:15;96521.81;;;7.92;100.00
2000;BME280;1001;48.87406500;9.59633600;2022-11-12T03:18:42;96520.81;;;7.93;100.00
2000;BME280;1001;48.87406500;9.59633600;2022-11-12T03:21:08;96532.50;;;7.97;100.00
2000;BME280;1001;48.87406500;9.59633600;2022-11-12T03:23:35;96525.94;;;8.01;100.00
2000;BME280;1001;48.87406500;9.59633600;2022-11-12T03:26:03;96526.50;;;7.96;100.00
2000;BME280;1001;48.87406500;9.59633600;2022-11-12T03:28:30;96522.97;;;7.89;100.00
2000;BME280;1001;48.87406500;9.59633600;2022-11-12T03:30:59;96520.38;;;7.89;100.00
2000;BME280;1001;48.87406500;9.59633600;2022-11-12T03:33:25;96524.03;;;7.80;100.00
2000;BME280;1001;48.87406500;9.59633600;2022-11-12T03:35:52;96522.06;;;7.82;100.00
2000;BME280;1001;48.87406500;9.59633600;2022-11-12T03:38:19;96518.75;;;7.88;100.00
2000;BME280;1001;48.87406500;9.59633600;2022-11-12T03:40:46;96520.13;;;7.62;100.00
2000;BME280;1001;48.87406500;9.59633600;2022-11-12T03:43:12;96527.25;;;7.45;100.00
2000;BME280;1001;48.87406500;9.59633600;2022-11-12T03:45:39;96523.06;;;7.36;100.00
2000;BME280;1001;48.87406500;9.59633600;2022-11-12T03:48:07;96524.59;;;7.30;100.00
2000;BME280;1001;48.87406500;9.59633600;2022-11-12T03:50:33;96527.78;;;7.40;100.00
2000;BME280;1001;48.87406500;9.59633600;2022-11-12T03:53:00;96516.31;;;7.49;100.00
2000;BME280;1001;48.87406500;9.59633600;2022-11-12T03:55:28;96510.25;;;7.57;100.00
2000;BME280;1001;48.87406500;9.59633600;2022-11-12T03:57:56;96515.66;;;7.70;100.00
2000;BME280;1001;48.87406500;9.59633600;2022-11-12T04:00:24;96517.66;;;7.83;100.00
2000;BME280;1001;48.87406500;9.59633600;2022-11-12T04:02:51;96521.22;;;8.04;100.00
2000;BME280;1001;48.87406500;9.59633600;2022-11-12T04:05:20;96513.56;;;8.17;100.00
2000;BME280;1001;48.87406500;9.59633600;2022-11-12T04:08:10;96520.66;;;8.23;100.00
2000;BME280;1001;48.87406500;9.59633600;2022-11-12T04:10:55;96521.09;;;8.35;100.00
2000;BME280;1001;48.87406500;9.59633600;2022-11-12T04:13:22;96516.56;;;8.29;100.00
2000;BME280;1001;48.87406500;9.59633600;2022-11-12T04:15:56;96512.69;;;8.25;100.00
2000;BME280;1001;48.87406500;9.59633600;2022-11-12T04:18:41;96517.19;;;8.31;100.00
2000;BME280;1001;48.87406500;9.59633600;2022-11-12T04:21:30;96524.03;;;8.32;100.00
2000;BME280;1001;48.87406500;9.59633600;2022-11-12T04:24:15;96519.63;;;8.33;100.00
2000;BME280;1001;48.87406500;9.59633600;2022-11-12T04:27:00;96517.19;;;8.46;100.00
2000;BME280;1001;48.87406500;9.59633600;2022-11-12T04:29:26;96513.78;;;8.45;100.00
2000;BME280;1001;48.87406500;9.59633600;2022-11-12T04:32:07;96513.06;;;8.37;99.92
2000;BME280;1001;48.87406500;9.59633600;2022-11-12T04:34:34;96504.16;;;8.31;99.78
2000;BME280;1001;48.87406500;9.59633600;2022-11-12T04:37:03;96503.53;;;8.29;100.00
2000;BME280;1001;48.87406500;9.59633600;2022-11-12T04:39:30;96508.06;;;8.35;100.00
2000;BME280;1001;48.87406500;9.59633600;2022-11-12T04:41:57;96519.44;;;8.34;99.47
2000;BME280;1001;48.87406500;9.59633600;2022-11-12T04:44:41;96522.59;;;8.30;99.53
2000;BME280;1001;48.87406500;9.59633600;2022-11-12T04:47:29;96516.31;;;8.39;99.12
2000;BME280;1001;48.87406500;9.59633600;2022-11-12T04:49:56;96520.53;;;8.40;99.32
2000;BME280;1001;48.87406500;9.59633600;2022-11-12T04:52:25;96522.13;;;8.41;99.17
2000;BME280;1001;48.87406500;9.59633600;2022-11-12T04:54:52;96515.50;;;8.38;98.72
2000;BME280;1001;48.87406500;9.59633600;2022-11-12T04:57:20;96520.88;;;8.37;98.66
2000;BME280;1001;48.87406500;9.59633600;2022-11-12T04:59:47;96519.19;;;8.44;98.79
2000;BME280;1001;48.87406500;9.59633600;2022-11-12T05:02:13;96514.03;;;8.50;98.52
2000;BME280;1001;48.87406500;9.59633600;2022-11-12T05:04:40;96514.13;;;8.57;98.36
2000;BME280;1001;48.87406500;9.59633600;2022-11-12T05:07:07;96517.00;;;8.47;98.60
2000;BME280;1001;48.87406500;9.59633600;2022-11-12T05:09:35;96521.25;;;8.48;98.98
2000;BME280;1001;48.87406500;9.59633600;2022-11-12T05:12:02;96509.72;;;8.43;99.48
2000;BME280;1001;48.87406500;9.59633600;2022-11-12T05:14:29;96518.00;;;8.32;99.62
2000;BME280;1001;48.87406500;9.59633600;2022-11-12T05:16:55;96518.63;;;8.34;100.00
2000;BME280;1001;48.87406500;9.59633600;2022-11-12T05:19:22;96514.88;;;8.36;100.00
2000;BME280;1001;48.87406500;9.59633600;2022-11-12T05:21:48;96511.78;;;8.47;99.33
2000;BME280;1001;48.87406500;9.59633600;2022-11-12T05:24:31;96510.81;;;8.48;99.08
2000;BME280;1001;48.87406500;9.59633600;2022-11-12T05:27:00;96509.91;;;8.56;98.63
2000;BME280;1001;48.87406500;9.59633600;2022-11-12T05:29:26;96509.56;;;8.59;98.56
2000;BME280;1001;48.87406500;9.59633600;2022-11-12T05:31:53;96510.00;;;8.62;98.60
2000;BME280;1001;48.87406500;9.59633600;2022-11-12T05:34:20;96518.91;;;8.68;98.13
2000;BME280;1001;48.87406500;9.59633600;2022-11-12T05:36:47;96512.41;;;8.64;98.27
2000;BME280;1001;48.87406500;9.59633600;2022-11-12T05:39:14;96515.22;;;8.62;98.14
2000;BME280;1001;48.87406500;9.59633600;2022-11-12T05:41:40;96524.94;;;8.54;98.37
2000;BME280;1001;48.87406500;9.59633600;2022-11-12T05:44:08;96519.34;;;8.57;97.97
2000;BME280;1001;48.87406500;9.59633600;2022-11-12T05:46:35;96522.31;;;8.54;98.22
2000;BME280;1001;48.87406500;9.59633600;2022-11-12T05:49:02;96529.53;;;8.37;98.64
2000;BME280;1001;48.87406500;9.59633600;2022-11-12T05:51:28;96530.47;;;8.21;99.58
2000;BME280;1001;48.87406500;9.59633600;2022-11-12T05:53:55;96525.41;;;8.05;100.00
2000;BME280;1001;48.87406500;9.59633600;2022-11-12T05:56:22;96521.63;;;7.93;100.00
2000;BME280;1001;48.87406500;9.59633600;2022-11-12T05:58:48;96526.00;;;7.78;100.00
2000;BME280;1001;48.87406500;9.59633600;2022-11-12T06:01:16;96531.56;;;7.75;100.00
2000;BME280;1001;48.87406500;9.59633600;2022-11-12T06:03:43;96534.31;;;7.59;100.00
2000;BME280;1001;48.87406500;9.59633600;2022-11-12T06:06:10;96529.63;;;7.54;100.00
2000;BME280;1001;48.87406500;9.59633600;2022-11-12T06:08:36;96535.28;;;7.58;100.00
2000;BME280;1001;48.87406500;9.59633600;2022-11-12T06:11:03;96536.13;;;7.73;100.00
2000;BME280;1001;48.87406500;9.59633600;2022-11-12T06:13:29;96539.81;;;7.79;100.00
2000;BME280;1001;48.87406500;9.59633600;2022-11-12T06:15:56;96537.41;;;7.77;100.00
2000;BME280;1001;48.87406500;9.59633600;2022-11-12T06:18:24;96543.31;;;7.71;100.00
2000;BME280;1001;48.87406500;9.59633600;2022-11-12T06:20:51;96552.09;;;7.70;100.00
2000;BME280;1001;48.87406500;9.59633600;2022-11-12T06:23:31;96551.72;;;7.59;100.00
2000;BME280;1001;48.87406500;9.59633600;2022-11-12T06:25:59;96546.84;;;7.55;100.00
2000;BME280;1001;48.87406500;9.59633600;2022-11-12T06:28:26;96544.25;;;7.55;100.00
2000;BME280;1001;48.87406500;9.59633600;2022-11-12T06:30:53;96543.09;;;7.58;100.00
2000;BME280;1001;48.87406500;9.59633600;2022-11-12T06:33:20;96531.81;;;7.66;100.00
2000;BME280;1001;48.87406500;9.59633600;2022-11-12T06:35:55;96531.19;;;7.64;100.00
2000;BME280;1001;48.87406500;9.59633600;2022-11-12T06:38:22;96534.41;;;7.66;100.00
2000;BME280;1001;48.87406500;9.59633600;2022-11-12T06:40:49;96542.66;;;7.69;100.00
2000;BME280;1001;48.87406500;9.59633600;2022-11-12T06:43:15;96538.28;;;7.70;100.00
2000;BME280;1001;48.87406500;9.59633600;2022-11-12T06:45:42;96543.75;;;7.75;100.00
2000;BME280;1001;48.87406500;9.59633600;2022-11-12T06:48:08;96533.38;;;7.89;100.00
2000;BME280;1001;48.87406500;9.59633600;2022-11-12T06:50:35;96530.69;;;7.83;100.00
2000;BME280;1001;48.87406500;9.59633600;2022-11-12T06:53:03;96535.38;;;7.87;100.00
2000;BME280;1001;48.87406500;9.59633600;2022-11-12T06:55:30;96533.38;;;7.89;100.00
2000;BME280;1001;48.87406500;9.59633600;2022-11-12T06:57:56;96536.72;;;7.98;100.00
2000;BME280;1001;48.87406500;9.59633600;2022-11-12T07:00:23;96527.41;;;8.18;99.27
2000;BME280;1001;48.87406500;9.59633600;2022-11-12T07:02:50;96530.50;;;8.36;97.91
2000;BME280;1001;48.87406500;9.59633600;2022-11-12T07:05:16;96539.84;;;8.60;97.15
2000;BME280;1001;48.87406500;9.59633600;2022-11-12T07:07:43;96541.44;;;8.75;94.89
2000;BME280;1001;48.87406500;9.59633600;2022-11-12T07:10:11;96537.03;;;8.76;95.10
2000;BME280;1001;48.87406500;9.59633600;2022-11-12T07:12:37;96541.28;;;8.77;95.01
2000;BME280;1001;48.87406500;9.59633600;2022-11-12T07:15:05;96525.72;;;8.69;95.74
2000;BME280;1001;48.87406500;9.59633600;2022-11-12T07:17:32;96530.22;;;8.60;96.30
2000;BME280;1001;48.87406500;9.59633600;2022-11-12T07:19:58;96530.41;;;8.59;96.54
2000;BME280;1001;48.87406500;9.59633600;2022-11-12T07:22:25;96542.09;;;8.48;98.62
2000;BME280;1001;48.87406500;9.59633600;2022-11-12T07:24:51;96534.53;;;8.53;97.69
2000;BME280;1001;48.87406500;9.59633600;2022-11-12T07:27:19;96534.34;;;8.55;99.00
2000;BME280;1001;48.87406500;9.59633600;2022-11-12T07:29:46;96537.84;;;8.47;100.00
2000;BME280;1001;48.87406500;9.59633600;2022-11-12T07:32:13;96536.59;;;8.43;100.00
2000;BME280;1001;48.87406500;9.59633600;2022-11-12T07:34:39;96529.78;;;8.42;100.00
2000;BME280;1001;48.87406500;9.59633600;2022-11-12T07:37:06;96537.22;;;8.45;100.00
2000;BME280;1001;48.87406500;9.59633600;2022-11-12T07:39:33;96536.34;;;8.53;100.00
2000;BME280;1001;48.87406500;9.59633600;2022-11-12T07:41:59;96535.16;;;8.55;100.00
2000;BME280;1001;48.87406500;9.59633600;2022-11-12T07:44:27;96530.94;;;8.54;99.65
2000;BME280;1001;48.87406500;9.59633600;2022-11-12T07:46:54;96536.75;;;8.71;99.74
2000;BME280;1001;48.87406500;9.59633600;2022-11-12T07:49:20;96536.06;;;8.77;99.55
2000;BME280;1001;48.87406500;9.59633600;2022-11-12T07:51:47;96540.44;;;8.91;99.72
2000;BME280;1001;48.87406500;9.59633600;2022-11-12T07:54:13;96535.34;;;9.04;99.40
2000;BME280;1001;48.87406500;9.59633600;2022-11-12T07:56:40;96534.72;;;9.02;96.88
2000;BME280;1001;48.87406500;9.59633600;2022-11-12T07:59:07;96527.06;;;9.15;96.44
2000;BME280;1001;48.87406500;9.59633600;2022-11-12T08:01:37;96533.84;;;9.31;97.12
2000;BME280;1001;48.87406500;9.59633600;2022-11-12T08:04:05;96533.84;;;9.31;97.63
2000;BME280;1001;48.87406500;9.59633600;2022-11-12T08:06:32;96536.25;;;9.32;96.16
2000;BME280;1001;48.87406500;9.59633600;2022-11-12T08:09:01;96549.16;;;9.34;95.58
2000;BME280;1001;48.87406500;9.59633600;2022-11-12T08:11:27;96543.56;;;9.37;95.45
2000;BME280;1001;48.87406500;9.59633600;2022-11-12T08:13:54;96550.31;;;9.31;96.00
2000;BME280;1001;48.87406500;9.59633600;2022-11-12T08:16:21;96546.69;;;9.32;94.96
2000;BME280;1001;48.87406500;9.59633600;2022-11-12T08:18:52;96546.16;;;9.37;95.38
2000;BME280;1001;48.87406500;9.59633600;2022-11-12T08:21:18;96543.09;;;9.33;95.04
2000;BME280;1001;48.87406500;9.59633600;2022-11-12T08:23:45;96544.97;;;9.39;95.17
2000;BME280;1001;48.87406500;9.59633600;2022-11-12T08:26:14;96545.16;;;9.38;95.30
2000;BME280;1001;48.87406500;9.59633600;2022-11-12T08:28:41;96544.44;;;9.65;96.31
2000;BME280;1001;48.87406500;9.59633600;2022-11-12T08:31:10;96549.22;;;9.62;95.07
2000;BME280;1001;48.87406500;9.59633600;2022-11-12T08:33:37;96541.06;;;9.71;94.57
2000;BME280;1001;48.87406500;9.59633600;2022-11-12T08:36:07;96543.09;;;9.76;95.57
2000;BME280;1001;48.87406500;9.59633600;2022-11-12T08:38:35;96540.66;;;9.95;95.68
2000;BME280;1001;48.87406500;9.59633600;2022-11-12T08:41:03;96535.19;;;9.90;95.62
2000;BME280;1001;48.87406500;9.59633600;2022-11-12T08:43:29;96534.22;;;9.91;96.41
2000;BME280;1001;48.87406500;9.59633600;2022-11-12T08:45:57;96534.88;;;10.00;96.60
2000;BME280;1001;48.87406500;9.59633600;2022-11-12T08:48:24;96535.69;;;10.00;96.37
2000;BME280;1001;48.87406500;9.59633600;2022-11-12T08:50:51;96543.31;;;10.23;95.33
2000;BME280;1001;48.87406500;9.59633600;2022-11-12T08:53:21;96544.59;;;10.34;95.86
2000;BME280;1001;48.87406500;9.59633600;2022-11-12T08:55:51;96537.50;;;10.62;93.22
2000;BME280;1001;48.87406500;9.59633600;2022-11-12T08:58:19;96545.25;;;10.83;91.66
2000;BME280;1001;48.87406500;9.59633600;2022-11-12T09:00:46;96543.22;;;10.78;89.17
2000;BME280;1001;48.87406500;9.59633600;2022-11-12T09:03:15;96543.81;;;10.74;88.08
2000;BME280;1001;48.87406500;9.59633600;2022-11-12T09:05:42;96543.41;;;10.77;88.13
2000;BME280;1001;48.87406500;9.59633600;2022-11-12T09:08:10;96537.34;;;10.70;86.54
2000;BME280;1001;48.87406500;9.59633600;2022-11-12T09:10:39;96540.53;;;10.65;86.63
2000;BME280;1001;48.87406500;9.59633600;2022-11-12T09:13:07;96534.56;;;10.78;87.28
2000;BME280;1001;48.87406500;9.59633600;2022-11-12T09:15:33;96541.59;;;10.77;87.78
2000;BME280;1001;48.87406500;9.59633600;2022-11-12T09:18:02;96534.97;;;10.81;87.25
2000;BME280;1001;48.87406500;9.59633600;2022-11-12T09:20:30;96536.44;;;10.90;88.06
2000;BME280;1001;48.87406500;9.59633600;2022-11-12T09:22:58;96543.84;;;10.87;86.55
2000;BME280;1001;48.87406500;9.59633600;2022-11-12T09:25:25;96540.66;;;10.91;86.49
2000;BME280;1001;48.87406500;9.59633600;2022-11-12T09:27:53;96541.09;;;11.02;88.50
2000;BME280;1001;48.87406500;9.59633600;2022-11-12T09:30:20;96548.81;;;11.16;88.76
2000;BME280;1001;48.87406500;9.59633600;2022-11-12T09:32:46;96539.19;;;11.36;87.46
2000;BME280;1001;48.87406500;9.59633600;2022-11-12T09:35:13;96538.41;;;11.49;88.72
2000;BME280;1001;48.87406500;9.59633600;2022-11-12T09:37:40;96540.22;;;11.55;87.93
2000;BME280;1001;48.87406500;9.59633600;2022-11-12T09:40:09;96545.56;;;11.94;87.12
2000;BME280;1001;48.87406500;9.59633600;2022-11-12T09:42:44;96547.56;;;12.18;85.46
2000;BME280;1001;48.87406500;9.59633600;2022-11-12T09:45:27;96539.69;;;12.25;84.41
2000;BME280;1001;48.87406500;9.59633600;2022-11-12T09:47:57;96538.25;;;12.42;84.19
2000;BME280;1001;48.87406500;9.59633600;2022-11-12T09:50:27;96546.16;;;12.16;84.76
2000;BME280;1001;48.87406500;9.59633600;2022-11-12T09:53:00;96541.50;;;12.18;83.61
2000;BME280;1001;48.87406500;9.59633600;2022-11-12T09:55:32;96541.94;;;12.02;85.17
2000;BME280;1001;48.87406500;9.59633600;2022-11-12T09:58:00;96543.53;;;12.22;84.90
2000;BME280;1001;48.87406500;9.59633600;2022-11-12T10:00:28;96538.88;;;12.24;83.59
2000;BME280;1001;48.87406500;9.59633600;2022-11-12T10:03:00;96533.44;;;12.33;83.74
2000;BME280;1001;48.87406500;9.59633600;2022-11-12T10:05:32;96529.88;;;12.71;84.79
2000;BME280;1001;48.87406500;9.59633600;2022-11-12T10:08:06;96530.47;;;12.73;84.43
2000;BME280;1001;48.87406500;9.59633600;2022-11-12T10:10:41;96524.44;;;12.79;82.13
2000;BME280;1001;48.87406500;9.59633600;2022-11-12T10:13:19;96534.53;;;12.76;82.43
2000;BME280;1001;48.87406500;9.59633600;2022-11-12T10:16:05;96522.59;;;12.86;82.62
2000;BME280;1001;48.87406500;9.59633600;2022-11-12T10:19:04;96524.63;;;12.84;81.64
2000;BME280;1001;48.87406500;9.59633600;2022-11-12T10:21:41;96525.44;;;12.78;81.13
2000;BME280;1001;48.87406500;9.59633600;2022-11-12T10:24:11;96524.31;;;12.99;82.93
2000;BME280;1001;48.87406500;9.59633600;2022-11-12T10:26:39;96519.91;;;12.93;81.92
2000;BME280;1001;48.87406500;9.59633600;2022-11-12T10:29:12;96523.81;;;12.84;83.57
2000;BME280;1001;48.87406500;9.59633600;2022-11-12T10:31:42;96516.84;;;13.03;83.03
2000;BME280;1001;48.87406500;9.59633600;2022-11-12T10:34:16;96517.81;;;13.21;80.43
2000;BME280;1001;48.87406500;9.59633600;2022-11-12T10:36:46;96517.44;;;13.49;82.32
2000;BME280;1001;48.87406500;9.59633600;2022-11-12T10:39:31;96517.69;;;13.41;82.23
2000;BME280;1001;48.87406500;9.59633600;2022-11-12T10:42:03;96520.16;;;13.36;82.53
2000;BME280;1001;48.87406500;9.59633600;2022-11-12T10:44:30;96526.41;;;13.66;80.89
2000;BME280;1001;48.87406500;9.59633600;2022-11-12T10:50:05;96519.13;;;14.17;78.45
2000;BME280;1001;48.87406500;9.59633600;2022-11-12T10:52:36;96521.56;;;14.19;77.58
2000;BME280;1001;48.87406500;9.59633600;2022-11-12T10:55:05;96518.56;;;14.40;77.12
2000;BME280;1001;48.87406500;9.59633600;2022-11-12T10:57:39;96508.84;;;14.59;76.39
2000;BME280;1001;48.87406500;9.59633600;2022-11-12T11:00:13;96518.78;;;14.75;75.26
2000;BME280;1001;48.87406500;9.59633600;2022-11-12T11:02:45;96518.78;;;14.93;76.27
2000;BME280;1001;48.87406500;9.59633600;2022-11-12T11:05:28;96525.53;;;15.07;73.06
2000;BME280;1001;48.87406500;9.59633600;2022-11-12T11:07:55;96514.59;;;15.04;74.28
2000;BME280;1001;48.87406500;9.59633600;2022-11-12T11:10:24;96513.59;;;14.86;73.60
2000;BME280;1001;48.87406500;9.59633600;2022-11-12T11:13:17;96517.13;;;14.19;75.41
2000;BME280;1001;48.87406500;9.59633600;2022-11-12T11:15:57;96518.72;;;14.20;73.66
2000;BME280;1001;48.87406500;9.59633600;2022-11-12T11:18:25;96506.78;;;14.61;76.52
2000;BME280;1001;48.87406500;9.59633600;2022-11-12T11:21:01;96518.28;;;14.66;76.35
2000;BME280;1001;48.87406500;9.59633600;2022-11-12T11:23:31;96510.34;;;14.48;74.32
2000;BME280;1001;48.87406500;9.59633600;2022-11-12T11:26:12;96515.94;;;14.40;75.02
2000;BME280;1001;48.87406500;9.59633600;2022-11-12T11:28:47;96514.63;;;14.49;77.09
2000;BME280;1001;48.87406500;9.59633600;2022-11-12T11:31:27;96511.31;;;14.36;75.07
2000;BME280;1001;48.87406500;9.59633600;2022-11-12T11:34:09;96508.75;;;14.65;74.92
2000;BME280;1001;48.87406500;9.59633600;2022-11-12T11:36:45;96505.75;;;14.44;74.80
2000;BME280;1001;48.87406500;9.59633600;2022-11-12T11:39:21;96500.56;;;14.55;73.59
2000;BME280;1001;48.87406500;9.59633600;2022-11-12T11:41:58;96499.91;;;14.42;74.38
2000;BME280;1001;48.87406500;9.59633600;2022-11-12T11:44:37;96497.81;;;14.25;75.45
2000;BME280;1001;48.87406500;9.59633600;2022-11-12T11:47:18;96491.66;;;14.38;77.45
2000;BME280;1001;48.87406500;9.59633600;2022-11-12T11:49:59;96488.28;;;14.31;75.16
2000;BME280;1001;48.87406500;9.59633600;2022-11-12T11:52:40;96488.13;;;14.44;75.60
2000;BME280;1001;48.87406500;9.59633600;2022-11-12T11:55:22;96482.66;;;14.03;77.03
2000;BME280;1001;48.87406500;9.59633600;2022-11-12T11:57:58;96485.50;;;14.01;79.20
2000;BME280;1001;48.87406500;9.59633600;2022-11-12T12:00:35;96477.00;;;14.24;80.50